Fort Hunter, New York
Current Conditions -  °F | °C
As of 5:15 PM on Wednesday 28 Jan 2015 (Local Time) from KNY0 Reporting Station
Clear Clear  
Wind Chill:   Ceiling: Unl
Heat Index: 17°   Visibility: 10mi
Dew Point: -2°   Wind: 14mph
Humidity: 42%   Direction: 270°W
Pressure: 30.16"   Gusts: 20mph
Location:  42.94°N, 74.28°W
Report Text: KNY0 282215Z AUTO 27012G17KT 10SM CLR M08/M19 A3016 RMK AO2 T10821191
Loading
Personal Weather Stations






























Interactive Weather Map New forecast layout! Learn more

10-Day Weather Forecast

Advertisements
Track Severe Weather on mobile